sensor_id;sensor_type;location;lat;lon;timestamp;P1;durP1;ratioP1;P2;durP2;ratioP2
11962;SDS011;62678;52.130;5.584;2023-05-29T00:00:45;24.70;;;4.93;;
11962;SDS011;62678;52.130;5.584;2023-05-29T00:03:11;27.40;;;4.28;;
11962;SDS011;62678;52.130;5.584;2023-05-29T00:05:39;23.05;;;4.05;;
11962;SDS011;62678;52.130;5.584;2023-05-29T00:08:07;26.15;;;5.18;;
11962;SDS011;62678;52.130;5.584;2023-05-29T00:10:34;21.52;;;4.00;;
11962;SDS011;62678;52.130;5.584;2023-05-29T00:13:02;22.50;;;4.32;;
11962;SDS011;62678;52.130;5.584;2023-05-29T00:15:29;25.92;;;3.90;;
11962;SDS011;62678;52.130;5.584;2023-05-29T00:17:56;21.73;;;4.72;;
11962;SDS011;62678;52.130;5.584;2023-05-29T00:20:23;18.95;;;3.78;;
11962;SDS011;62678;52.130;5.584;2023-05-29T00:22:50;23.60;;;4.35;;
11962;SDS011;62678;52.130;5.584;2023-05-29T00:25:18;19.23;;;4.10;;
11962;SDS011;62678;52.130;5.584;2023-05-29T00:27:45;19.00;;;3.80;;
11962;SDS011;62678;52.130;5.584;2023-05-29T00:30:12;23.00;;;3.95;;
11962;SDS011;62678;52.130;5.584;2023-05-29T00:32:39;30.27;;;4.22;;
11962;SDS011;62678;52.130;5.584;2023-05-29T00:35:06;23.55;;;4.00;;
11962;SDS011;62678;52.130;5.584;2023-05-29T00:37:33;19.38;;;4.18;;
11962;SDS011;62678;52.130;5.584;2023-05-29T00:40:00;21.88;;;4.30;;
11962;SDS011;62678;52.130;5.584;2023-05-29T00:42:30;18.77;;;4.05;;
11962;SDS011;62678;52.130;5.584;2023-05-29T00:44:57;19.20;;;3.88;;
11962;SDS011;62678;52.130;5.584;2023-05-29T00:47:23;19.67;;;3.95;;
11962;SDS011;62678;52.130;5.584;2023-05-29T00:49:51;24.00;;;4.38;;
11962;SDS011;62678;52.130;5.584;2023-05-29T00:52:19;21.50;;;3.67;;
11962;SDS011;62678;52.130;5.584;2023-05-29T00:54:46;23.15;;;3.65;;
11962;SDS011;62678;52.130;5.584;2023-05-29T00:57:13;21.65;;;4.00;;
11962;SDS011;62678;52.130;5.584;2023-05-29T00:59:44;17.35;;;3.67;;
11962;SDS011;62678;52.130;5.584;2023-05-29T01:02:13;20.90;;;3.95;;
11962;SDS011;62678;52.130;5.584;2023-05-29T01:04:41;24.58;;;4.47;;
11962;SDS011;62678;52.130;5.584;2023-05-29T01:07:10;23.00;;;3.72;;
11962;SDS011;62678;52.130;5.584;2023-05-29T01:09:37;18.45;;;3.72;;
11962;SDS011;62678;52.130;5.584;2023-05-29T01:12:08;20.27;;;3.85;;
11962;SDS011;62678;52.130;5.584;2023-05-29T01:14:54;21.92;;;3.88;;
11962;SDS011;62678;52.130;5.584;2023-05-29T01:17:32;22.33;;;4.00;;
11962;SDS011;62678;52.130;5.584;2023-05-29T01:20:13;20.92;;;3.83;;
11962;SDS011;62678;52.130;5.584;2023-05-29T01:23:00;22.80;;;3.50;;
11962;SDS011;62678;52.130;5.584;2023-05-29T01:25:45;20.33;;;3.92;;
11962;SDS011;62678;52.130;5.584;2023-05-29T01:28:24;22.02;;;4.07;;
11962;SDS011;62678;52.130;5.584;2023-05-29T01:30:53;19.27;;;3.55;;
11962;SDS011;62678;52.130;5.584;2023-05-29T01:33:22;14.70;;;3.40;;
11962;SDS011;62678;52.130;5.584;2023-05-29T01:35:49;22.02;;;3.92;;
11962;SDS011;62678;52.130;5.584;2023-05-29T01:38:16;23.35;;;3.83;;
11962;SDS011;62678;52.130;5.584;2023-05-29T01:40:43;21.27;;;3.83;;
11962;SDS011;62678;52.130;5.584;2023-05-29T01:43:10;20.88;;;3.70;;
11962;SDS011;62678;52.130;5.584;2023-05-29T01:45:39;18.67;;;3.60;;
11962;SDS011;62678;52.130;5.584;2023-05-29T01:48:06;22.58;;;4.00;;
11962;SDS011;62678;52.130;5.584;2023-05-29T01:50:33;13.15;;;2.97;;
11962;SDS011;62678;52.130;5.584;2023-05-29T01:53:01;23.40;;;3.60;;
11962;SDS011;62678;52.130;5.584;2023-05-29T01:55:28;18.52;;;3.38;;
11962;SDS011;62678;52.130;5.584;2023-05-29T01:57:55;19.20;;;3.65;;
11962;SDS011;62678;52.130;5.584;2023-05-29T02:00:22;21.52;;;4.15;;
11962;SDS011;62678;52.130;5.584;2023-05-29T02:02:51;14.60;;;3.30;;
11962;SDS011;62678;52.130;5.584;2023-05-29T02:05:17;17.98;;;3.88;;
11962;SDS011;62678;52.130;5.584;2023-05-29T02:07:44;15.60;;;4.03;;
11962;SDS011;62678;52.130;5.584;2023-05-29T02:10:11;21.05;;;3.42;;
11962;SDS011;62678;52.130;5.584;2023-05-29T02:12:38;20.75;;;3.95;;
11962;SDS011;62678;52.130;5.584;2023-05-29T02:15:05;13.85;;;3.17;;
11962;SDS011;62678;52.130;5.584;2023-05-29T02:17:33;22.30;;;3.90;;
11962;SDS011;62678;52.130;5.584;2023-05-29T02:20:01;21.33;;;3.13;;
11962;SDS011;62678;52.130;5.584;2023-05-29T02:22:29;20.58;;;3.05;;
11962;SDS011;62678;52.130;5.584;2023-05-29T02:24:56;23.75;;;4.43;;
11962;SDS011;62678;52.130;5.584;2023-05-29T02:27:23;19.20;;;3.60;;
11962;SDS011;62678;52.130;5.584;2023-05-29T02:29:49;26.63;;;4.85;;
11962;SDS011;62678;52.130;5.584;2023-05-29T02:32:16;17.02;;;3.95;;
11962;SDS011;62678;52.130;5.584;2023-05-29T02:34:43;17.83;;;3.13;;
11962;SDS011;62678;52.130;5.584;2023-05-29T02:37:11;16.88;;;3.58;;
11962;SDS011;62678;52.130;5.584;2023-05-29T02:39:38;14.27;;;3.03;;
11962;SDS011;62678;52.130;5.584;2023-05-29T02:42:05;17.48;;;3.80;;
11962;SDS011;62678;52.130;5.584;2023-05-29T02:44:33;17.65;;;3.20;;
11962;SDS011;62678;52.130;5.584;2023-05-29T02:46:59;22.95;;;3.67;;
11962;SDS011;62678;52.130;5.584;2023-05-29T02:49:26;20.58;;;3.53;;
11962;SDS011;62678;52.130;5.584;2023-05-29T02:51:53;20.20;;;3.40;;
11962;SDS011;62678;52.130;5.584;2023-05-29T02:54:23;18.75;;;3.35;;
11962;SDS011;62678;52.130;5.584;2023-05-29T02:56:50;20.42;;;2.97;;
11962;SDS011;62678;52.130;5.584;2023-05-29T02:59:17;25.90;;;3.70;;
11962;SDS011;62678;52.130;5.584;2023-05-29T03:01:44;17.58;;;2.95;;
11962;SDS011;62678;52.130;5.584;2023-05-29T03:04:10;20.63;;;3.97;;
11962;SDS011;62678;52.130;5.584;2023-05-29T03:06:37;17.02;;;3.15;;
11962;SDS011;62678;52.130;5.584;2023-05-29T03:09:04;18.13;;;3.70;;
11962;SDS011;62678;52.130;5.584;2023-05-29T03:11:33;19.88;;;3.05;;
11962;SDS011;62678;52.130;5.584;2023-05-29T03:14:01;19.75;;;3.20;;
11962;SDS011;62678;52.130;5.584;2023-05-29T03:16:27;20.75;;;3.63;;
11962;SDS011;62678;52.130;5.584;2023-05-29T03:18:54;15.82;;;3.42;;
11962;SDS011;62678;52.130;5.584;2023-05-29T03:21:21;20.17;;;3.55;;
11962;SDS011;62678;52.130;5.584;2023-05-29T03:23:48;16.38;;;3.00;;
11962;SDS011;62678;52.130;5.584;2023-05-29T03:26:15;14.38;;;3.20;;
11962;SDS011;62678;52.130;5.584;2023-05-29T03:28:43;19.05;;;3.70;;
11962;SDS011;62678;52.130;5.584;2023-05-29T03:31:10;20.17;;;3.22;;
11962;SDS011;62678;52.130;5.584;2023-05-29T03:33:37;17.40;;;3.47;;
11962;SDS011;62678;52.130;5.584;2023-05-29T03:36:04;19.65;;;3.85;;
11962;SDS011;62678;52.130;5.584;2023-05-29T03:38:32;23.25;;;3.25;;
11962;SDS011;62678;52.130;5.584;2023-05-29T03:40:59;20.23;;;4.07;;
11962;SDS011;62678;52.130;5.584;2023-05-29T03:43:26;15.20;;;3.13;;
11962;SDS011;62678;52.130;5.584;2023-05-29T03:45:54;22.85;;;3.80;;
11962;SDS011;62678;52.130;5.584;2023-05-29T03:48:21;24.05;;;3.55;;
11962;SDS011;62678;52.130;5.584;2023-05-29T03:50:48;20.48;;;3.30;;
11962;SDS011;62678;52.130;5.584;2023-05-29T03:53:15;23.08;;;3.78;;
11962;SDS011;62678;52.130;5.584;2023-05-29T03:55:42;22.63;;;3.10;;
11962;SDS011;62678;52.130;5.584;2023-05-29T03:58:09;17.50;;;3.22;;
11962;SDS011;62678;52.130;5.584;2023-05-29T04:00:37;23.80;;;3.55;;
11962;SDS011;62678;52.130;5.584;2023-05-29T04:03:05;18.92;;;3.17;;
11962;SDS011;62678;52.130;5.584;2023-05-29T04:05:32;19.42;;;3.63;;
11962;SDS011;62678;52.130;5.584;2023-05-29T04:07:59;16.33;;;3.00;;
11962;SDS011;62678;52.130;5.584;2023-05-29T04:10:29;13.07;;;3.65;;
11962;SDS011;62678;52.130;5.584;2023-05-29T04:12:58;21.17;;;3.10;;
11962;SDS011;62678;52.130;5.584;2023-05-29T04:15:25;20.38;;;3.17;;
11962;SDS011;62678;52.130;5.584;2023-05-29T04:17:52;18.08;;;3.60;;
11962;SDS011;62678;52.130;5.584;2023-05-29T04:20:21;20.35;;;3.22;;
11962;SDS011;62678;52.130;5.584;2023-05-29T04:22:48;26.33;;;3.17;;
11962;SDS011;62678;52.130;5.584;2023-05-29T04:25:14;16.80;;;3.03;;
11962;SDS011;62678;52.130;5.584;2023-05-29T04:27:41;20.52;;;3.58;;
11962;SDS011;62678;52.130;5.584;2023-05-29T04:30:08;16.73;;;3.42;;
11962;SDS011;62678;52.130;5.584;2023-05-29T04:32:35;27.05;;;4.30;;
11962;SDS011;62678;52.130;5.584;2023-05-29T04:35:02;15.45;;;3.03;;
11962;SDS011;62678;52.130;5.584;2023-05-29T04:37:31;19.10;;;3.72;;
11962;SDS011;62678;52.130;5.584;2023-05-29T04:40:02;20.17;;;3.10;;
11962;SDS011;62678;52.130;5.584;2023-05-29T04:42:34;19.33;;;3.22;;
11962;SDS011;62678;52.130;5.584;2023-05-29T04:45:01;24.23;;;3.50;;
11962;SDS011;62678;52.130;5.584;2023-05-29T04:47:29;20.63;;;3.53;;
11962;SDS011;62678;52.130;5.584;2023-05-29T04:49:58;19.67;;;3.25;;
11962;SDS011;62678;52.130;5.584;2023-05-29T04:52:25;24.75;;;3.72;;
11962;SDS011;62678;52.130;5.584;2023-05-29T04:54:54;12.63;;;3.35;;
11962;SDS011;62678;52.130;5.584;2023-05-29T04:57:21;18.10;;;2.95;;
11962;SDS011;62678;52.130;5.584;2023-05-29T04:59:48;24.15;;;3.85;;
11962;SDS011;62678;52.130;5.584;2023-05-29T05:02:15;23.77;;;3.75;;
11962;SDS011;62678;52.130;5.584;2023-05-29T05:04:42;21.25;;;3.63;;
11962;SDS011;62678;52.130;5.584;2023-05-29T05:07:10;18.05;;;3.22;;
11962;SDS011;62678;52.130;5.584;2023-05-29T05:09:37;16.65;;;2.65;;
11962;SDS011;62678;52.130;5.584;2023-05-29T05:12:05;16.73;;;3.00;;
11962;SDS011;62678;52.130;5.584;2023-05-29T05:14:32;14.40;;;3.22;;
11962;SDS011;62678;52.130;5.584;2023-05-29T05:16:59;19.13;;;3.28;;
11962;SDS011;62678;52.130;5.584;2023-05-29T05:19:26;18.75;;;3.08;;
11962;SDS011;62678;52.130;5.584;2023-05-29T05:21:53;22.85;;;3.70;;
11962;SDS011;62678;52.130;5.584;2023-05-29T05:24:19;15.70;;;2.45;;
11962;SDS011;62678;52.130;5.584;2023-05-29T05:26:46;18.42;;;3.10;;
11962;SDS011;62678;52.130;5.584;2023-05-29T05:29:14;20.20;;;3.40;;
11962;SDS011;62678;52.130;5.584;2023-05-29T05:31:41;17.48;;;3.30;;
11962;SDS011;62678;52.130;5.584;2023-05-29T05:34:08;20.98;;;3.83;;
11962;SDS011;62678;52.130;5.584;2023-05-29T05:36:34;15.32;;;3.03;;
11962;SDS011;62678;52.130;5.584;2023-05-29T05:39:01;16.30;;;2.95;;
11962;SDS011;62678;52.130;5.584;2023-05-29T05:41:29;15.68;;;3.00;;
11962;SDS011;62678;52.130;5.584;2023-05-29T05:43:56;13.73;;;2.58;;
11962;SDS011;62678;52.130;5.584;2023-05-29T05:46:24;14.80;;;2.97;;
11962;SDS011;62678;52.130;5.584;2023-05-29T05:48:53;22.58;;;3.45;;
11962;SDS011;62678;52.130;5.584;2023-05-29T05:51:22;16.95;;;3.00;;
11962;SDS011;62678;52.130;5.584;2023-05-29T05:53:48;14.98;;;3.05;;
11962;SDS011;62678;52.130;5.584;2023-05-29T05:56:16;17.58;;;3.38;;
11962;SDS011;62678;52.130;5.584;2023-05-29T05:58:43;13.82;;;3.00;;
11962;SDS011;62678;52.130;5.584;2023-05-29T06:01:10;17.83;;;3.00;;
11962;SDS011;62678;52.130;5.584;2023-05-29T06:03:38;14.90;;;3.00;;
11962;SDS011;62678;52.130;5.584;2023-05-29T06:06:06;13.98;;;2.75;;
11962;SDS011;62678;52.130;5.584;2023-05-29T06:08:33;18.95;;;4.05;;
11962;SDS011;62678;52.130;5.584;2023-05-29T06:11:00;19.95;;;3.05;;
11962;SDS011;62678;52.130;5.584;2023-05-29T06:13:27;15.40;;;2.60;;
11962;SDS011;62678;52.130;5.584;2023-05-29T06:15:54;14.00;;;3.00;;
11962;SDS011;62678;52.130;5.584;2023-05-29T06:18:21;17.25;;;2.53;;
11962;SDS011;62678;52.130;5.584;2023-05-29T06:20:49;12.82;;;3.10;;
11962;SDS011;62678;52.130;5.584;2023-05-29T06:23:16;11.85;;;2.50;;
11962;SDS011;62678;52.130;5.584;2023-05-29T06:25:43;15.82;;;2.92;;
11962;SDS011;62678;52.130;5.584;2023-05-29T06:28:10;13.73;;;2.72;;
11962;SDS011;62678;52.130;5.584;2023-05-29T06:30:37;12.07;;;2.53;;
11962;SDS011;62678;52.130;5.584;2023-05-29T06:33:05;14.38;;;2.78;;
11962;SDS011;62678;52.130;5.584;2023-05-29T06:35:32;13.07;;;2.47;;
11962;SDS011;62678;52.130;5.584;2023-05-29T06:38:00;15.30;;;2.63;;
11962;SDS011;62678;52.130;5.584;2023-05-29T06:40:27;10.05;;;2.17;;
11962;SDS011;62678;52.130;5.584;2023-05-29T06:42:54;15.48;;;2.90;;
11962;SDS011;62678;52.130;5.584;2023-05-29T06:45:21;12.48;;;2.45;;
11962;SDS011;62678;52.130;5.584;2023-05-29T06:47:48;12.57;;;2.40;;
11962;SDS011;62678;52.130;5.584;2023-05-29T06:50:15;16.67;;;3.08;;
11962;SDS011;62678;52.130;5.584;2023-05-29T06:52:41;13.98;;;3.00;;
11962;SDS011;62678;52.130;5.584;2023-05-29T06:55:10;12.20;;;2.83;;
11962;SDS011;62678;52.130;5.584;2023-05-29T06:57:36;18.48;;;3.20;;
11962;SDS011;62678;52.130;5.584;2023-05-29T07:00:04;14.13;;;2.60;;
11962;SDS011;62678;52.130;5.584;2023-05-29T07:02:32;13.63;;;2.55;;
11962;SDS011;62678;52.130;5.584;2023-05-29T07:04:59;14.50;;;2.90;;
11962;SDS011;62678;52.130;5.584;2023-05-29T07:07:26;17.17;;;2.83;;
11962;SDS011;62678;52.130;5.584;2023-05-29T07:09:53;23.20;;;3.25;;
11962;SDS011;62678;52.130;5.584;2023-05-29T07:12:21;13.63;;;2.75;;
11962;SDS011;62678;52.130;5.584;2023-05-29T07:14:48;17.30;;;3.15;;
11962;SDS011;62678;52.130;5.584;2023-05-29T07:17:15;13.93;;;2.60;;
11962;SDS011;62678;52.130;5.584;2023-05-29T07:19:42;14.38;;;2.45;;
11962;SDS011;62678;52.130;5.584;2023-05-29T07:22:08;11.82;;;2.53;;
11962;SDS011;62678;52.130;5.584;2023-05-29T07:24:35;16.55;;;3.25;;
11962;SDS011;62678;52.130;5.584;2023-05-29T07:27:02;20.52;;;3.28;;
11962;SDS011;62678;52.130;5.584;2023-05-29T07:29:31;11.05;;;2.85;;
11962;SDS011;62678;52.130;5.584;2023-05-29T07:31:58;13.75;;;2.63;;
11962;SDS011;62678;52.130;5.584;2023-05-29T07:34:25;12.43;;;2.75;;
11962;SDS011;62678;52.130;5.584;2023-05-29T07:36:59;11.60;;;2.33;;
11962;SDS011;62678;52.130;5.584;2023-05-29T07:39:27;14.02;;;2.67;;
11962;SDS011;62678;52.130;5.584;2023-05-29T07:41:54;11.35;;;2.90;;
11962;SDS011;62678;52.130;5.584;2023-05-29T07:44:21;15.73;;;2.70;;
11962;SDS011;62678;52.130;5.584;2023-05-29T07:46:49;12.80;;;3.15;;
11962;SDS011;62678;52.130;5.584;2023-05-29T07:49:16;10.63;;;2.50;;
11962;SDS011;62678;52.130;5.584;2023-05-29T07:51:43;12.45;;;2.80;;
11962;SDS011;62678;52.130;5.584;2023-05-29T07:54:10;11.60;;;3.13;;
11962;SDS011;62678;52.130;5.584;2023-05-29T07:56:37;11.82;;;2.92;;
11962;SDS011;62678;52.130;5.584;2023-05-29T07:59:05;12.18;;;2.38;;
11962;SDS011;62678;52.130;5.584;2023-05-29T08:01:34;14.57;;;2.78;;
11962;SDS011;62678;52.130;5.584;2023-05-29T08:04:02;12.45;;;2.50;;
11962;SDS011;62678;52.130;5.584;2023-05-29T08:06:29;11.23;;;2.28;;
11962;SDS011;62678;52.130;5.584;2023-05-29T08:08:57;14.63;;;2.95;;
11962;SDS011;62678;52.130;5.584;2023-05-29T08:11:24;13.40;;;2.38;;
11962;SDS011;62678;52.130;5.584;2023-05-29T08:13:51;11.15;;;2.83;;
11962;SDS011;62678;52.130;5.584;2023-05-29T08:16:18;15.20;;;2.42;;
11962;SDS011;62678;52.130;5.584;2023-05-29T08:18:47;11.18;;;2.40;;
11962;SDS011;62678;52.130;5.584;2023-05-29T08:21:15;11.98;;;2.45;;
11962;SDS011;62678;52.130;5.584;2023-05-29T08:23:42;11.75;;;2.13;;
11962;SDS011;62678;52.130;5.584;2023-05-29T08:26:09;12.85;;;2.67;;
11962;SDS011;62678;52.130;5.584;2023-05-29T08:28:36;11.30;;;2.05;;
11962;SDS011;62678;52.130;5.584;2023-05-29T08:31:02;18.60;;;3.10;;
11962;SDS011;62678;52.130;5.584;2023-05-29T08:33:29;12.40;;;2.55;;
11962;SDS011;62678;52.130;5.584;2023-05-29T08:35:57;14.05;;;2.42;;
11962;SDS011;62678;52.130;5.584;2023-05-29T08:38:26;14.60;;;2.78;;
11962;SDS011;62678;52.130;5.584;2023-05-29T08:40:52;9.85;;;2.30;;
11962;SDS011;62678;52.130;5.584;2023-05-29T08:43:22;13.07;;;2.45;;
11962;SDS011;62678;52.130;5.584;2023-05-29T08:45:52;13.25;;;2.42;;
11962;SDS011;62678;52.130;5.584;2023-05-29T08:48:22;7.93;;;2.05;;
11962;SDS011;62678;52.130;5.584;2023-05-29T08:50:50;11.43;;;2.67;;
11962;SDS011;62678;52.130;5.584;2023-05-29T08:53:19;10.95;;;2.38;;
11962;SDS011;62678;52.130;5.584;2023-05-29T08:55:49;17.67;;;3.60;;
11962;SDS011;62678;52.130;5.584;2023-05-29T08:58:17;9.32;;;2.40;;
11962;SDS011;62678;52.130;5.584;2023-05-29T09:00:46;15.50;;;2.60;;
11962;SDS011;62678;52.130;5.584;2023-05-29T09:03:14;12.40;;;2.38;;
11962;SDS011;62678;52.130;5.584;2023-05-29T09:05:42;10.82;;;2.25;;
11962;SDS011;62678;52.130;5.584;2023-05-29T09:08:10;13.07;;;2.85;;
11962;SDS011;62678;52.130;5.584;2023-05-29T09:10:38;11.00;;;2.25;;
11962;SDS011;62678;52.130;5.584;2023-05-29T09:13:07;13.38;;;2.25;;
11962;SDS011;62678;52.130;5.584;2023-05-29T09:15:35;10.35;;;2.20;;
11962;SDS011;62678;52.130;5.584;2023-05-29T09:18:03;13.60;;;2.75;;
11962;SDS011;62678;52.130;5.584;2023-05-29T09:20:31;10.95;;;2.47;;
11962;SDS011;62678;52.130;5.584;2023-05-29T09:22:58;9.25;;;2.40;;
11962;SDS011;62678;52.130;5.584;2023-05-29T09:25:26;7.55;;;2.40;;
11962;SDS011;62678;52.130;5.584;2023-05-29T09:27:57;13.13;;;2.40;;
11962;SDS011;62678;52.130;5.584;2023-05-29T09:30:33;10.35;;;2.60;;
11962;SDS011;62678;52.130;5.584;2023-05-29T09:33:02;10.07;;;2.60;;
11962;SDS011;62678;52.130;5.584;2023-05-29T09:35:36;10.27;;;2.33;;
11962;SDS011;62678;52.130;5.584;2023-05-29T09:38:05;11.90;;;2.38;;
11962;SDS011;62678;52.130;5.584;2023-05-29T09:40:32;10.45;;;2.78;;
11962;SDS011;62678;52.130;5.584;2023-05-29T09:43:01;9.32;;;2.30;;
11962;SDS011;62678;52.130;5.584;2023-05-29T09:45:39;11.20;;;2.90;;
11962;SDS011;62678;52.130;5.584;2023-05-29T09:48:07;11.00;;;2.13;;
11962;SDS011;62678;52.130;5.584;2023-05-29T09:50:41;11.73;;;2.67;;
11962;SDS011;62678;52.130;5.584;2023-05-29T09:53:16;8.15;;;2.35;;
11962;SDS011;62678;52.130;5.584;2023-05-29T09:55:45;6.97;;;2.08;;
11962;SDS011;62678;52.130;5.584;2023-05-29T09:58:13;13.60;;;2.92;;
11962;SDS011;62678;52.130;5.584;2023-05-29T10:00:42;12.32;;;2.70;;
11962;SDS011;62678;52.130;5.584;2023-05-29T10:03:09;8.98;;;2.40;;
11962;SDS011;62678;52.130;5.584;2023-05-29T10:05:37;9.75;;;2.65;;
11962;SDS011;62678;52.130;5.584;2023-05-29T10:08:05;10.35;;;3.10;;
11962;SDS011;62678;52.130;5.584;2023-05-29T10:10:34;10.45;;;2.05;;
11962;SDS011;62678;52.130;5.584;2023-05-29T10:13:03;13.50;;;2.72;;
11962;SDS011;62678;52.130;5.584;2023-05-29T10:15:32;9.48;;;2.88;;
11962;SDS011;62678;52.130;5.584;2023-05-29T10:18:02;12.35;;;3.10;;
11962;SDS011;62678;52.130;5.584;2023-05-29T10:20:33;11.75;;;3.08;;
11962;SDS011;62678;52.130;5.584;2023-05-29T10:23:01;11.38;;;3.17;;
11962;SDS011;62678;52.130;5.584;2023-05-29T10:25:29;12.00;;;2.92;;
11962;SDS011;62678;52.130;5.584;2023-05-29T10:27:59;14.55;;;3.92;;
11962;SDS011;62678;52.130;5.584;2023-05-29T10:30:28;12.32;;;2.55;;
11962;SDS011;62678;52.130;5.584;2023-05-29T10:33:22;13.75;;;2.67;;
11962;SDS011;62678;52.130;5.584;2023-05-29T10:36:03;12.57;;;3.08;;
11962;SDS011;62678;52.130;5.584;2023-05-29T10:38:36;11.65;;;2.70;;
11962;SDS011;62678;52.130;5.584;2023-05-29T10:43:57;12.77;;;2.88;;
11962;SDS011;62678;52.130;5.584;2023-05-29T10:49:38;13.80;;;3.35;;
11962;SDS011;62678;52.130;5.584;2023-05-29T10:52:06;12.43;;;3.10;;
11962;SDS011;62678;52.130;5.584;2023-05-29T10:54:40;10.52;;;3.05;;
11962;SDS011;62678;52.130;5.584;2023-05-29T10:57:17;11.52;;;2.90;;
11962;SDS011;62678;52.130;5.584;2023-05-29T10:59:44;16.95;;;2.80;;
11962;SDS011;62678;52.130;5.584;2023-05-29T11:02:11;11.25;;;2.90;;
11962;SDS011;62678;52.130;5.584;2023-05-29T11:04:45;11.27;;;3.00;;
11962;SDS011;62678;52.130;5.584;2023-05-29T11:07:34;9.80;;;2.97;;
11962;SDS011;62678;52.130;5.584;2023-05-29T11:10:11;12.48;;;3.10;;
11962;SDS011;62678;52.130;5.584;2023-05-29T11:15:23;11.18;;;2.88;;
11962;SDS011;62678;52.130;5.584;2023-05-29T11:17:51;8.63;;;2.78;;
11962;SDS011;62678;52.130;5.584;2023-05-29T11:20:27;10.48;;;2.58;;
11962;SDS011;62678;52.130;5.584;2023-05-29T11:23:02;16.98;;;3.03;;
11962;SDS011;62678;52.130;5.584;2023-05-29T11:25:33;11.00;;;3.05;;
11962;SDS011;62678;52.130;5.584;2023-05-29T11:28:01;14.50;;;2.92;;
11962;SDS011;62678;52.130;5.584;2023-05-29T11:30:33;12.52;;;3.30;;
11962;SDS011;62678;52.130;5.584;2023-05-29T11:33:07;12.25;;;3.72;;
11962;SDS011;62678;52.130;5.584;2023-05-29T11:35:42;9.30;;;2.60;;
11962;SDS011;62678;52.130;5.584;2023-05-29T11:38:10;14.57;;;2.80;;
11962;SDS011;62678;52.130;5.584;2023-05-29T11:40:36;10.65;;;2.78;;
11962;SDS011;62678;52.130;5.584;2023-05-29T11:43:03;8.93;;;3.08;;
11962;SDS011;62678;52.130;5.584;2023-05-29T11:45:32;14.25;;;3.40;;
11962;SDS011;62678;52.130;5.584;2023-05-29T11:48:01;13.70;;;3.25;;
11962;SDS011;62678;52.130;5.584;2023-05-29T11:50:29;9.75;;;3.10;;
11962;SDS011;62678;52.130;5.584;2023-05-29T11:52:59;12.98;;;3.25;;
11962;SDS011;62678;52.130;5.584;2023-05-29T11:55:26;13.88;;;3.10;;
11962;SDS011;62678;52.130;5.584;2023-05-29T11:57:55;8.18;;;2.58;;
11962;SDS011;62678;52.130;5.584;2023-05-29T12:00:23;10.23;;;2.88;;
11962;SDS011;62678;52.130;5.584;2023-05-29T12:02:51;11.02;;;2.78;;
11962;SDS011;62678;52.130;5.584;2023-05-29T12:05:18;11.25;;;3.00;;
11962;SDS011;62678;52.130;5.584;2023-05-29T12:07:48;11.20;;;2.60;;
11962;SDS011;62678;52.130;5.584;2023-05-29T12:10:19;12.23;;;3.00;;
11962;SDS011;62678;52.130;5.584;2023-05-29T12:12:47;11.35;;;3.05;;
11962;SDS011;62678;52.130;5.584;2023-05-29T12:15:14;11.70;;;3.25;;
11962;SDS011;62678;52.130;5.584;2023-05-29T12:17:42;10.80;;;3.50;;
11962;SDS011;62678;52.130;5.584;2023-05-29T12:20:10;9.57;;;3.15;;
11962;SDS011;62678;52.130;5.584;2023-05-29T12:22:39;13.65;;;3.65;;
11962;SDS011;62678;52.130;5.584;2023-05-29T12:25:07;15.65;;;3.17;;
11962;SDS011;62678;52.130;5.584;2023-05-29T12:27:38;13.05;;;3.38;;
11962;SDS011;62678;52.130;5.584;2023-05-29T12:30:11;13.48;;;3.20;;
11962;SDS011;62678;52.130;5.584;2023-05-29T12:32:41;12.75;;;3.40;;
11962;SDS011;62678;52.130;5.584;2023-05-29T12:35:12;12.35;;;3.00;;
11962;SDS011;62678;52.130;5.584;2023-05-29T12:37:43;13.00;;;2.80;;
11962;SDS011;62678;52.130;5.584;2023-05-29T12:40:13;11.80;;;3.13;;
11962;SDS011;62678;52.130;5.584;2023-05-29T12:42:42;15.73;;;3.47;;
11962;SDS011;62678;52.130;5.584;2023-05-29T12:45:09;15.20;;;3.47;;
11962;SDS011;62678;52.130;5.584;2023-05-29T12:47:37;13.65;;;3.42;;
11962;SDS011;62678;52.130;5.584;2023-05-29T12:50:04;12.63;;;2.70;;
11962;SDS011;62678;52.130;5.584;2023-05-29T12:52:45;9.82;;;2.70;;
11962;SDS011;62678;52.130;5.584;2023-05-29T12:55:11;12.75;;;3.30;;
11962;SDS011;62678;52.130;5.584;2023-05-29T12:57:38;12.65;;;3.22;;
11962;SDS011;62678;52.130;5.584;2023-05-29T13:00:08;9.57;;;2.97;;
11962;SDS011;62678;52.130;5.584;2023-05-29T13:02:37;13.18;;;3.03;;
11962;SDS011;62678;52.130;5.584;2023-05-29T13:05:04;11.60;;;2.97;;
11962;SDS011;62678;52.130;5.584;2023-05-29T13:07:31;10.73;;;2.88;;
11962;SDS011;62678;52.130;5.584;2023-05-29T13:09:58;13.00;;;3.15;;
11962;SDS011;62678;52.130;5.584;2023-05-29T13:12:27;12.57;;;3.10;;
11962;SDS011;62678;52.130;5.584;2023-05-29T13:14:53;17.77;;;3.45;;
11962;SDS011;62678;52.130;5.584;2023-05-29T13:17:22;17.88;;;3.42;;
11962;SDS011;62678;52.130;5.584;2023-05-29T13:19:49;14.77;;;3.25;;
11962;SDS011;62678;52.130;5.584;2023-05-29T13:22:16;12.18;;;3.13;;
11962;SDS011;62678;52.130;5.584;2023-05-29T13:24:42;12.13;;;3.03;;
11962;SDS011;62678;52.130;5.584;2023-05-29T13:27:09;12.13;;;2.90;;
11962;SDS011;62678;52.130;5.584;2023-05-29T13:29:38;16.17;;;3.53;;
11962;SDS011;62678;52.130;5.584;2023-05-29T13:32:06;12.95;;;3.28;;
11962;SDS011;62678;52.130;5.584;2023-05-29T13:34:35;14.27;;;2.95;;
11962;SDS011;62678;52.130;5.584;2023-05-29T13:37:01;8.90;;;3.33;;
11962;SDS011;62678;52.130;5.584;2023-05-29T13:39:28;14.65;;;3.05;;
11962;SDS011;62678;52.130;5.584;2023-05-29T13:41:55;14.60;;;3.28;;
11962;SDS011;62678;52.130;5.584;2023-05-29T13:44:22;13.55;;;3.38;;
11962;SDS011;62678;52.130;5.584;2023-05-29T13:46:49;14.43;;;2.92;;
11962;SDS011;62678;52.130;5.584;2023-05-29T13:49:16;9.32;;;2.67;;
11962;SDS011;62678;52.130;5.584;2023-05-29T13:51:44;12.52;;;2.70;;
11962;SDS011;62678;52.130;5.584;2023-05-29T13:54:12;11.20;;;2.95;;
11962;SDS011;62678;52.130;5.584;2023-05-29T13:56:39;8.30;;;2.47;;
11962;SDS011;62678;52.130;5.584;2023-05-29T13:59:05;13.23;;;2.60;;
11962;SDS011;62678;52.130;5.584;2023-05-29T14:01:32;11.48;;;2.95;;
11962;SDS011;62678;52.130;5.584;2023-05-29T14:03:59;12.80;;;3.30;;
11962;SDS011;62678;52.130;5.584;2023-05-29T14:06:26;10.40;;;2.85;;
11962;SDS011;62678;52.130;5.584;2023-05-29T14:08:55;9.85;;;2.90;;
11962;SDS011;62678;52.130;5.584;2023-05-29T14:11:22;12.95;;;3.15;;
11962;SDS011;62678;52.130;5.584;2023-05-29T14:13:49;12.32;;;2.88;;
11962;SDS011;62678;52.130;5.584;2023-05-29T14:16:19;13.35;;;2.97;;
11962;SDS011;62678;52.130;5.584;2023-05-29T14:18:46;10.65;;;2.88;;
11962;SDS011;62678;52.130;5.584;2023-05-29T14:21:13;12.27;;;2.90;;
11962;SDS011;62678;52.130;5.584;2023-05-29T14:23:40;9.95;;;2.40;;
11962;SDS011;62678;52.130;5.584;2023-05-29T14:26:08;11.55;;;2.70;;
11962;SDS011;62678;52.130;5.584;2023-05-29T14:28:35;8.70;;;2.85;;
11962;SDS011;62678;52.130;5.584;2023-05-29T14:31:03;10.68;;;3.03;;
11962;SDS011;62678;52.130;5.584;2023-05-29T14:33:31;10.45;;;2.70;;
11962;SDS011;62678;52.130;5.584;2023-05-29T14:35:57;17.02;;;3.28;;
11962;SDS011;62678;52.130;5.584;2023-05-29T14:38:24;16.55;;;3.30;;
11962;SDS011;62678;52.130;5.584;2023-05-29T14:40:51;12.18;;;2.88;;
11962;SDS011;62678;52.130;5.584;2023-05-29T14:43:19;9.93;;;2.70;;
11962;SDS011;62678;52.130;5.584;2023-05-29T14:45:46;11.73;;;2.60;;
11962;SDS011;62678;52.130;5.584;2023-05-29T14:48:13;12.55;;;3.03;;
11962;SDS011;62678;52.130;5.584;2023-05-29T14:50:41;12.50;;;2.80;;